< < Back
Terminal Aerodrome Forecast


Current Version              Previous Versions:   1  2  3  4  5  6  7  8  9  

Terminal Aerodrome Forecast

470
FTUS42 KJAX 270521
TAFJAX
TAF
KJAX 270521Z 2706/2806 23008KT P6SM VCSH SCT040 OVC080
     FM270800 22007KT P6SM OVC015
      TEMPO 2710/2713 OVC007
     FM271400 23010KT P6SM VCSH SCT010 BKN020
     FM271700 25014G22KT 5SM -SHRA VCTS SCT015 OVC025CB
     FM272000 28012G20KT P6SM VCSH SCT025 BKN040
     FM272300 29010KT P6SM SCT040 BKN250
     FM280300 32010KT P6SM SKC=

Latest METAR

994
SAUS80 KWBC 270600 RRA
MTRJAX
METAR KJAX 270556Z 24010KT 9SM -RA BKN110 OVC150 18/17 A2984 RMK AO2
RAB42 SLP105 P0000 60002 T01830172 10194 20183 58007


USA.gov is the U.S. government's official web portal to all federal, state and local government web resources and services.